Aérodrome :
LOGIN :

S'inscrire | Disclaimer

   EN    FR    IT 

 










Légende :    VFR   VFR Marginal   IFR   IFR Intensif   IFR Très Intensif
Visi : 
Plafond : 
>= 8 km
>= 3000ft
5 à 8 km
1000 à 3000 ft
1500m à 5 km
500 à 1000 ft
800 à 1500m
200 à 500 ft
< 800m
< 200 ft
Symboles :   Orages  Brouillard  Fortes neiges  Fortes précipitations  Vent > 20 kt
SIGMETs :   Divers  Orages  Givrage  Turbulence  Onde Orograph.  Cendres Volcan.






- Altitude de l'aérodrome : 325 ft
- Code IATA : BES


LFRB - Brest

DERNIER METAR :
  • 232000Z AUTO 35006KT CAVOK 13/09 Q1025 NOSIG

METARs EXPIRÉS :
  • 231930Z AUTO 35006KT CAVOK 14/09 Q1025 NOSIG
  • 231900Z AUTO 35008KT CAVOK 15/10 Q1024 NOSIG
  • 231830Z AUTO 01007KT 340V050 CAVOK 16/08 Q1024 NOSIG
  • 231800Z AUTO 02008KT 340V050 CAVOK 17/08 Q1024 NOSIG
  • 231730Z AUTO 03010KT 360V070 CAVOK 17/08 Q1024 NOSIG

TAF TAF LFRB
Valide du 23 à 18h jusqu'au 25 à 00h UTC


231700Z 2318/2424 02010KT 9999 SCT030
BECMG 2322/2324 VRB03KT 3000 BR
TEMPO 2400/2406 0300 FG VV///
BECMG 2406/2408 9999 NSW
BECMG 2410/2412 28008KT
BECMG 2412/2415 BKN015
BECMG 2416/2419 BKN007
BECMG 2419/2422 VRB05KT 3000 BR BKN003
ATIS : +33 2 98 32 02 71



MET'MAP, la Météo Aéronautique d'un coup d'oeil ! - Copyright ORBIFLY Décembre 2007 - Disclaimer

ORBIFLY MET'MAP TEAM :

Programmation & Développement : Alexandra Zaïnal
Sur une idée originale de : Baudouin d'Aumeries
Assistance à la programmation : Marc-Olivier Méhu
Soutien technique & logistique : Manuel Goepfert

Contact : metmap@orbifly.com




SOURCES & CREDITS :

   NOAA